KMOB/MOB METAR and TAF weather

Enter ICAO airport designator
Station Type Date Time Source
KMOB METAR 2021/07/29 17:56 UTC NOAA

KMOB 291756Z 35005KT 10SM SCT035 BKN250 33/23 A3004 RMK AO2 SLP170 CB DSNT SE-SW T03280228 10333 20239 58011


Station Type Date Time Source
KMOB Decoded METAR 2021/07/29 17:56 UTC NOAA

MOBILE REGIONAL AIRPORT, AL, United States (KMOB) 30-41N 88-14W 67M
Jul 29, 2021 - 01:56 PM EDT / 2021.07.29 1756 UTC
Wind: from the N (350 degrees) at 6 MPH (5 KT):0
Visibility: 10 mile(s):0
Sky conditions: mostly cloudy
Weather: Cumulonimbus clouds observed
Temperature: 91.0 F (32.8 C)
Heat index: 99.1 F (37.3 C):1
Dew Point: 73.0 F (22.8 C)
Relative Humidity: 55%
Pressure (altimeter): 30.04 in. Hg (1017 hPa)
Pressure tendency: 0.03 inches (1.1 hPa) lower than three hours ago
ob: KMOB 291756Z 35005KT 10SM SCT035 BKN250 33/23 A3004 RMK AO2 SLP170 CB DSNT SE-SW T03280228 10333 20239 58011
cycle: 18

Station Type Date Time Source
KMOB TAF 2021/07/29 18:36 UTC NOAA

TAF KMOB 291733Z 2918/3018 31004KT P6SM SCT040
FM292100 20006KT P6SM VCTS SCT050CB BKN100
FM300100 VRB03KT P6SM FEW250

Example: see airport list